Time;durP1;ratioP1;P1;durP2;ratioP2;P2;SDS_P1;SDS_P2;PMS_P1;PMS_P2;Temp;Humidity;BMP_temperature;BMP_pressure;BME280_temperature;BME280_humidity;BME280_pressure;Samples;Min_cycle;Max_cycle;Signal;HPM_P1;HPM_P2
2022/09/18 00:01:40;;;;;;;0.00;0.00;;;19.80;1.00;;;;;;5032630;28;20036;-63
2022/09/18 00:04:07;;;;;;;0.20;0.10;;;19.80;1.00;;;;;;5031813;28;20509;-63
2022/09/18 00:06:35;;;;;;;1.65;0.73;;;19.90;1.00;;;;;;5040425;28;20518;-63
2022/09/18 00:09:04;;;;;;;0.10;0.10;;;19.80;1.00;;;;;;5043075;28;20033;-63
2022/09/18 00:11:34;;;;;;;0.20;0.20;;;19.90;1.00;;;;;;5031371;28;20029;-63
2022/09/18 00:14:00;;;;;;;0.20;0.10;;;19.80;1.00;;;;;;5042946;28;20029;-63
2022/09/18 00:16:26;;;;;;;0.85;0.20;;;19.80;1.00;;;;;;5032621;28;20025;-62
2022/09/18 00:18:52;;;;;;;0.55;0.25;;;19.80;1.00;;;;;;5043897;28;20517;-63
2022/09/18 00:21:22;;;;;;;0.80;0.20;;;19.70;1.00;;;;;;5031049;28;20359;-63
2022/09/18 00:23:49;;;;;;;0.95;0.30;;;19.70;1.00;;;;;;5031535;28;20017;-63
2022/09/18 00:26:16;;;;;;;0.15;0.15;;;19.80;1.00;;;;;;5032282;28;20030;-63
2022/09/18 00:28:42;;;;;;;0.20;0.20;;;19.70;1.00;;;;;;5020139;28;20395;-63
2022/09/18 00:31:09;;;;;;;0.85;0.25;;;19.80;1.00;;;;;;5029574;28;20022;-63
2022/09/18 00:33:36;;;;;;;1.55;0.32;;;19.70;1.00;;;;;;5035645;28;20555;-64
2022/09/18 00:36:04;;;;;;;0.68;0.20;;;19.70;1.00;;;;;;5032172;28;20057;-62
2022/09/18 00:38:31;;;;;;;1.58;0.20;;;19.60;1.00;;;;;;5029883;28;20026;-63
2022/09/18 00:40:57;;;;;;;0.55;0.20;;;19.60;1.00;;;;;;5030846;28;20100;-63
2022/09/18 00:43:25;;;;;;;0.43;0.43;;;19.60;1.00;;;;;;5032259;28;20505;-63
2022/09/18 00:45:59;;;;;;;0.30;0.20;;;19.60;1.00;;;;;;5031677;28;20044;-63
2022/09/18 00:48:36;;;;;;;0.00;0.00;;;19.70;1.00;;;;;;5032548;28;20040;-63
2022/09/18 00:51:02;;;;;;;0.43;0.22;;;19.60;1.00;;;;;;5035530;28;20103;-63
2022/09/18 00:53:28;;;;;;;1.23;0.15;;;19.70;1.00;;;;;;5029872;28;20017;-63
2022/09/18 00:55:56;;;;;;;1.30;0.10;;;19.50;1.00;;;;;;5033791;28;20112;-63
2022/09/18 00:58:21;;;;;;;1.45;0.20;;;19.60;1.00;;;;;;5032024;28;20029;-63
2022/09/18 01:00:47;;;;;;;1.15;0.10;;;19.60;1.00;;;;;;5039566;28;20099;-63
2022/09/18 01:03:13;;;;;;;0.10;0.10;;;19.50;1.00;;;;;;5030724;28;20053;-63
2022/09/18 01:05:50;;;;;;;0.90;0.20;;;19.60;1.00;;;;;;5031765;28;20059;-63
2022/09/18 01:08:24;;;;;;;0.45;0.20;;;19.60;1.00;;;;;;5030623;28;20109;-63
2022/09/18 01:11:08;;;;;;;2.50;0.15;;;19.50;1.00;;;;;;5029048;28;20033;-63
2022/09/18 01:13:45;;;;;;;0.30;0.20;;;19.50;1.00;;;;;;5032009;28;20057;-63
2022/09/18 01:16:24;;;;;;;1.58;0.10;;;19.50;1.00;;;;;;5026748;28;20042;-63
2022/09/18 01:19:05;;;;;;;0.52;0.10;;;19.40;1.00;;;;;;5017230;28;20026;-62
2022/09/18 01:21:43;;;;;;;0.08;0.08;;;19.50;1.00;;;;;;5030744;28;20029;-62
2022/09/18 01:24:51;;;;;;;0.20;0.15;;;19.50;1.00;;;;;;5031391;28;20451;-62
2022/09/18 01:27:26;;;;;;;1.13;0.40;;;19.50;1.00;;;;;;5030862;28;20106;-62
2022/09/18 01:30:02;;;;;;;0.22;0.05;;;19.50;1.00;;;;;;5030535;28;20320;-62
2022/09/18 01:32:38;;;;;;;1.17;0.70;;;19.50;1.00;;;;;;5030908;28;20018;-62
2022/09/18 01:35:19;;;;;;;1.95;0.50;;;19.30;1.00;;;;;;5031181;28;20147;-62
2022/09/18 01:37:52;;;;;;;3.08;0.30;;;19.20;1.00;;;;;;5024884;28;20033;-62
2022/09/18 01:40:27;;;;;;;0.43;0.20;;;19.10;1.00;;;;;;5030227;28;20026;-62
2022/09/18 01:42:58;;;;;;;0.73;0.22;;;19.10;1.00;;;;;;5034363;28;20071;-62
2022/09/18 01:45:31;;;;;;;0.22;0.10;;;19.10;1.00;;;;;;5032703;28;20129;-62
2022/09/18 01:48:00;;;;;;;0.63;0.38;;;19.20;1.00;;;;;;5040872;28;20463;-62
2022/09/18 01:50:30;;;;;;;1.50;0.30;;;19.10;1.00;;;;;;5034830;28;20394;-62
2022/09/18 01:53:21;;;;;;;0.77;0.40;;;19.10;1.00;;;;;;5034664;28;20098;-62
2022/09/18 01:55:55;;;;;;;0.30;0.30;;;19.10;1.00;;;;;;5037333;28;20044;-62
2022/09/18 01:58:24;;;;;;;1.45;0.45;;;18.90;1.00;;;;;;5033107;28;20033;-62
2022/09/18 02:00:53;;;;;;;1.13;0.30;;;19.00;1.00;;;;;;5037080;28;20039;-62
2022/09/18 02:03:29;;;;;;;1.05;0.30;;;18.90;1.00;;;;;;5033582;28;20057;-62
2022/09/18 02:06:05;;;;;;;0.40;0.13;;;18.90;1.00;;;;;;5028326;28;20064;-62
2022/09/18 02:08:39;;;;;;;0.65;0.20;;;18.70;1.00;;;;;;5033567;28;20036;-62
2022/09/18 02:11:16;;;;;;;0.20;0.20;;;18.80;1.00;;;;;;5028921;28;20447;-62
2022/09/18 02:13:55;;;;;;;0.20;0.20;;;18.80;1.00;;;;;;5033448;28;20030;-62
2022/09/18 02:16:43;;;;;;;1.75;0.40;;;18.80;1.00;;;;;;5034117;28;20464;-62
2022/09/18 02:19:32;;;;;;;1.00;0.30;;;18.60;1.00;;;;;;5038419;28;20033;-62
2022/09/18 02:21:59;;;;;;;0.57;0.20;;;18.60;1.00;;;;;;5035739;28;20033;-62
2022/09/18 02:24:29;;;;;;;1.50;0.20;;;18.50;1.00;;;;;;5038416;28;20402;-63
2022/09/18 02:26:55;;;;;;;0.30;0.10;;;18.60;1.00;;;;;;5034979;28;20022;-62
2022/09/18 02:29:23;;;;;;;1.13;0.30;;;18.60;1.00;;;;;;5033141;28;20041;-62
2022/09/18 02:31:49;;;;;;;0.35;0.30;;;18.60;1.00;;;;;;5034599;28;20032;-62
2022/09/18 02:34:17;;;;;;;0.82;0.40;;;18.60;1.00;;;;;;5033633;28;20022;-62
2022/09/18 02:37:08;;;;;;;1.95;0.30;;;18.50;1.00;;;;;;5032496;28;20110;-62
2022/09/18 02:39:55;;;;;;;4.05;0.40;;;18.40;1.00;;;;;;5029596;28;20383;-61
2022/09/18 02:43:05;;;;;;;0.32;0.20;;;18.40;1.00;;;;;;5033176;28;20487;-61
2022/09/18 02:46:09;;;;;;;0.30;0.20;;;18.20;1.00;;;;;;5026948;28;20140;-62
2022/09/18 02:48:45;;;;;;;0.32;0.10;;;18.10;1.00;;;;;;5011658;28;20098;-62
2022/09/18 02:51:27;;;;;;;0.30;0.20;;;18.10;1.00;;;;;;5011969;28;20040;-62
2022/09/18 02:54:18;;;;;;;1.67;0.30;;;18.00;1.00;;;;;;5011138;28;20030;-62
2022/09/18 02:56:58;;;;;;;0.28;0.17;;;18.00;1.00;;;;;;5033625;28;20546;-62
2022/09/18 02:59:46;;;;;;;1.27;0.35;;;18.00;1.00;;;;;;5031976;28;20609;-62
2022/09/18 03:02:12;;;;;;;0.38;0.28;;;17.80;1.00;;;;;;5033937;28;20445;-62
2022/09/18 03:04:38;;;;;;;1.65;0.38;;;18.00;1.00;;;;;;5032531;28;20109;-62
2022/09/18 03:07:03;;;;;;;0.98;0.20;;;18.10;1.00;;;;;;5033895;28;20067;-62
2022/09/18 03:09:31;;;;;;;1.45;0.50;;;18.00;1.00;;;;;;5037400;28;20509;-62
2022/09/18 03:11:56;;;;;;;0.68;0.30;;;18.00;1.00;;;;;;5037285;28;20030;-62
2022/09/18 03:14:22;;;;;;;0.65;0.20;;;18.00;1.00;;;;;;5032562;28;20075;-62
2022/09/18 03:16:48;;;;;;;0.20;0.20;;;18.10;1.00;;;;;;5031891;28;20121;-62
2022/09/18 03:19:13;;;;;;;0.38;0.38;;;18.10;1.00;;;;;;5032528;28;20029;-62
2022/09/18 03:21:40;;;;;;;0.63;0.20;;;17.90;1.00;;;;;;5033794;28;20026;-63
2022/09/18 03:24:06;;;;;;;1.63;0.30;;;17.90;1.00;;;;;;5034268;28;20094;-62
2022/09/18 03:26:32;;;;;;;2.17;0.40;;;18.00;1.00;;;;;;5041235;28;20221;-63
2022/09/18 03:28:58;;;;;;;0.35;0.35;;;18.00;1.00;;;;;;5038674;28;20024;-63
2022/09/18 03:31:23;;;;;;;0.60;0.15;;;18.00;1.00;;;;;;5019569;28;20029;-62
2022/09/18 03:33:49;;;;;;;0.20;0.20;;;18.00;1.00;;;;;;5032636;28;20029;-62
2022/09/18 03:36:15;;;;;;;0.88;0.28;;;18.00;1.00;;;;;;5033169;28;20076;-62
2022/09/18 03:38:41;;;;;;;0.32;0.28;;;18.00;1.00;;;;;;5031988;28;20034;-62
2022/09/18 03:41:07;;;;;;;1.42;0.65;;;18.00;1.00;;;;;;5039555;28;20025;-63
2022/09/18 03:43:33;;;;;;;0.98;0.20;;;18.00;1.00;;;;;;5032998;28;20086;-62
2022/09/18 03:45:59;;;;;;;1.48;0.25;;;18.00;1.00;;;;;;5037152;28;20037;-63
2022/09/18 03:48:25;;;;;;;0.77;0.40;;;17.90;1.00;;;;;;5032976;28;20096;-62
2022/09/18 03:50:51;;;;;;;0.20;0.20;;;17.90;1.00;;;;;;5032194;28;20100;-62
2022/09/18 03:53:17;;;;;;;2.08;0.82;;;17.80;1.00;;;;;;5032895;28;20083;-62
2022/09/18 03:55:42;;;;;;;0.22;0.20;;;17.80;1.00;;;;;;5032012;28;20479;-62
2022/09/18 03:58:08;;;;;;;2.28;0.30;;;17.90;1.00;;;;;;5032668;28;20380;-62
2022/09/18 04:00:33;;;;;;;0.73;0.20;;;17.90;1.00;;;;;;5037457;28;20083;-62
2022/09/18 04:02:59;;;;;;;1.30;0.30;;;17.80;1.00;;;;;;5032845;28;20032;-62
2022/09/18 04:05:25;;;;;;;1.10;0.10;;;17.80;1.00;;;;;;5034114;28;20041;-62
2022/09/18 04:07:51;;;;;;;0.38;0.20;;;17.80;1.00;;;;;;5031900;28;20025;-62
2022/09/18 04:10:17;;;;;;;0.20;0.20;;;17.60;1.00;;;;;;5031384;28;20026;-62
2022/09/18 04:12:46;;;;;;;1.67;0.35;;;17.80;1.00;;;;;;5032670;28;20157;-62
2022/09/18 04:15:13;;;;;;;1.27;0.43;;;17.70;1.00;;;;;;5038968;28;20532;-62
2022/09/18 04:17:39;;;;;;;1.40;0.20;;;17.80;1.00;;;;;;5032446;28;20025;-62
2022/09/18 04:20:06;;;;;;;1.88;0.20;;;17.80;1.00;;;;;;5039467;28;20029;-62
2022/09/18 04:22:32;;;;;;;1.30;0.70;;;17.90;1.00;;;;;;5018738;28;20083;-62
2022/09/18 04:24:58;;;;;;;0.82;0.20;;;17.90;1.00;;;;;;5038295;28;20041;-62
2022/09/18 04:27:23;;;;;;;0.93;0.10;;;17.70;1.00;;;;;;5035295;28;20120;-62
2022/09/18 04:29:49;;;;;;;3.40;0.30;;;17.70;1.00;;;;;;5036400;28;20051;-61
2022/09/18 04:32:14;;;;;;;0.82;0.30;;;17.70;1.00;;;;;;5037458;28;20029;-62
2022/09/18 04:34:40;;;;;;;0.57;0.13;;;17.60;1.00;;;;;;5031103;28;20458;-63
2022/09/18 04:37:06;;;;;;;0.75;0.10;;;17.70;1.00;;;;;;5032315;28;20040;-63
2022/09/18 04:39:32;;;;;;;0.60;0.22;;;17.80;1.00;;;;;;5033837;28;20025;-63
2022/09/18 04:41:58;;;;;;;0.45;0.20;;;17.80;1.00;;;;;;5040097;28;20387;-63
2022/09/18 04:44:24;;;;;;;1.20;0.30;;;17.70;1.00;;;;;;5030979;28;20036;-63
2022/09/18 04:46:49;;;;;;;0.25;0.10;;;17.80;1.00;;;;;;5032330;28;20033;-63
2022/09/18 04:49:15;;;;;;;1.27;0.30;;;17.70;1.00;;;;;;5031263;28;20034;-63
2022/09/18 04:51:40;;;;;;;0.52;0.20;;;17.80;1.00;;;;;;5030099;28;20040;-63
2022/09/18 04:54:06;;;;;;;1.27;0.30;;;17.80;1.00;;;;;;5032056;28;20104;-63
2022/09/18 04:56:32;;;;;;;3.65;0.30;;;17.90;1.00;;;;;;5040189;28;20037;-63
2022/09/18 04:58:58;;;;;;;1.10;0.30;;;17.90;1.00;;;;;;5039997;28;20026;-61
2022/09/18 05:01:24;;;;;;;0.98;0.20;;;17.80;1.00;;;;;;5031042;28;20390;-61
2022/09/18 05:03:50;;;;;;;1.05;0.20;;;17.80;1.00;;;;;;5031804;28;20028;-62
2022/09/18 05:06:15;;;;;;;2.38;0.25;;;17.70;1.00;;;;;;5030752;28;20068;-62
2022/09/18 05:08:41;;;;;;;0.70;0.30;;;17.60;1.00;;;;;;5031364;28;20403;-62
2022/09/18 05:11:54;;;;;;;2.60;0.40;;;17.70;1.00;;;;;;5031063;28;20108;-62
2022/09/18 05:14:19;;;;;;;1.83;0.10;;;17.70;1.00;;;;;;5025783;28;20528;-62
2022/09/18 05:16:45;;;;;;;1.23;0.30;;;17.80;1.00;;;;;;5031314;28;20057;-62
2022/09/18 05:19:11;;;;;;;1.25;0.35;;;17.90;1.00;;;;;;5030592;28;20471;-62
2022/09/18 05:21:36;;;;;;;2.15;0.20;;;17.70;1.00;;;;;;5031763;28;20160;-62
2022/09/18 05:24:02;;;;;;;0.38;0.13;;;17.70;1.00;;;;;;5031507;28;20010;-62
2022/09/18 05:26:29;;;;;;;0.30;0.20;;;17.80;1.00;;;;;;5036260;28;20130;-62
2022/09/18 05:28:54;;;;;;;0.25;0.20;;;17.80;1.00;;;;;;5035152;28;20021;-62
2022/09/18 05:31:20;;;;;;;0.20;0.20;;;17.90;1.00;;;;;;5031216;28;20486;-62
2022/09/18 05:33:45;;;;;;;0.13;0.10;;;17.80;1.00;;;;;;5034319;28;20021;-62
2022/09/18 05:36:11;;;;;;;0.10;0.10;;;17.90;1.00;;;;;;5026135;28;20112;-62
2022/09/18 05:38:37;;;;;;;0.85;0.20;;;17.90;1.00;;;;;;5029872;28;20024;-62
2022/09/18 05:41:03;;;;;;;0.95;0.20;;;17.90;1.00;;;;;;5039445;28;20033;-62
2022/09/18 05:43:29;;;;;;;0.38;0.13;;;17.80;1.00;;;;;;5029352;28;20044;-62
2022/09/18 05:45:55;;;;;;;0.75;0.20;;;17.90;1.00;;;;;;5041018;28;20040;-62
2022/09/18 05:48:21;;;;;;;3.88;0.20;;;17.90;1.00;;;;;;5031063;28;20026;-62
2022/09/18 05:50:47;;;;;;;0.80;0.10;;;17.90;1.00;;;;;;5040759;28;20029;-62
2022/09/18 05:53:15;;;;;;;0.55;0.30;;;17.70;1.00;;;;;;5034450;28;20475;-62
2022/09/18 05:55:41;;;;;;;0.30;0.20;;;17.70;1.00;;;;;;5030092;28;20085;-62
2022/09/18 05:58:11;;;;;;;0.85;0.28;;;17.80;1.00;;;;;;5031174;28;20037;-62
2022/09/18 06:00:37;;;;;;;1.70;0.17;;;17.80;1.00;;;;;;5030566;28;20037;-62
2022/09/18 06:03:05;;;;;;;0.50;0.20;;;17.80;1.00;;;;;;5031255;28;20029;-62
2022/09/18 06:05:32;;;;;;;0.63;0.20;;;17.80;1.00;;;;;;5021023;28;20029;-62
2022/09/18 06:07:58;;;;;;;2.22;0.38;;;17.90;1.00;;;;;;5037584;28;20359;-62
2022/09/18 06:10:24;;;;;;;1.20;0.13;;;17.90;1.00;;;;;;5030243;28;20025;-62
2022/09/18 06:12:58;;;;;;;0.45;0.22;;;18.00;1.00;;;;;;5031001;28;20041;-62
2022/09/18 06:15:24;;;;;;;0.30;0.10;;;18.00;1.00;;;;;;5029927;28;20052;-62
2022/09/18 06:17:52;;;;;;;0.95;0.20;;;18.00;1.00;;;;;;5030867;28;20021;-62
2022/09/18 06:20:18;;;;;;;2.17;0.40;;;17.90;1.00;;;;;;5030572;28;20045;-62
2022/09/18 06:22:44;;;;;;;0.85;0.60;;;17.90;1.00;;;;;;5031258;28;20018;-62
2022/09/18 06:25:10;;;;;;;1.13;0.20;;;18.00;1.00;;;;;;5028415;28;20091;-62
2022/09/18 06:27:35;;;;;;;2.80;0.32;;;18.00;1.00;;;;;;5029745;28;20387;-62
2022/09/18 06:30:01;;;;;;;1.38;0.10;;;18.00;1.00;;;;;;5031785;28;20029;-63
2022/09/18 06:32:27;;;;;;;0.50;0.10;;;18.10;1.00;;;;;;5036522;28;20049;-61
2022/09/18 06:34:52;;;;;;;0.43;0.20;;;18.10;1.00;;;;;;5034294;28;20091;-61
2022/09/18 06:37:18;;;;;;;0.10;0.00;;;18.10;1.00;;;;;;5034440;28;20030;-61
2022/09/18 06:39:44;;;;;;;1.85;0.30;;;18.10;1.00;;;;;;5034610;28;20390;-61
2022/09/18 06:42:10;;;;;;;0.55;0.22;;;18.10;1.00;;;;;;5042361;28;20033;-61
2022/09/18 06:44:36;;;;;;;0.35;0.35;;;18.10;1.00;;;;;;5034188;28;20029;-62
2022/09/18 06:47:01;;;;;;;0.63;0.13;;;18.20;1.00;;;;;;5033462;28;20151;-62
2022/09/18 06:49:27;;;;;;;1.65;0.10;;;18.20;1.00;;;;;;5034190;28;20029;-62
2022/09/18 06:51:53;;;;;;;0.25;0.22;;;18.20;1.00;;;;;;5044917;28;20055;-63
2022/09/18 06:54:18;;;;;;;1.65;0.20;;;18.30;1.00;;;;;;5034042;28;20041;-62
2022/09/18 06:56:45;;;;;;;0.30;0.30;;;18.40;1.00;;;;;;5030652;28;20030;-61
2022/09/18 06:59:10;;;;;;;2.80;0.43;;;18.40;1.00;;;;;;5032443;28;20140;-61
2022/09/18 07:01:36;;;;;;;0.40;0.20;;;18.40;1.00;;;;;;5032899;28;20507;-62
2022/09/18 07:04:02;;;;;;;0.47;0.20;;;18.40;1.00;;;;;;5037558;28;20118;-62
2022/09/18 07:06:27;;;;;;;0.50;0.30;;;18.50;1.00;;;;;;5033003;28;20048;-62
2022/09/18 07:08:54;;;;;;;0.75;0.10;;;18.40;1.00;;;;;;5033527;28;20080;-62
2022/09/18 07:11:19;;;;;;;1.08;0.20;;;18.40;1.00;;;;;;5032747;28;20116;-62
2022/09/18 07:13:46;;;;;;;1.95;0.30;;;18.50;1.00;;;;;;5032312;28;20064;-62
2022/09/18 07:16:12;;;;;;;1.88;0.38;;;18.50;1.00;;;;;;5035923;28;20120;-62
2022/09/18 07:18:38;;;;;;;0.63;0.10;;;18.60;1.00;;;;;;5039994;28;20076;-62
2022/09/18 07:21:04;;;;;;;1.40;0.25;;;18.70;1.00;;;;;;5034312;28;20033;-61
2022/09/18 07:23:31;;;;;;;1.08;0.20;;;18.70;1.00;;;;;;5041844;28;20052;-61
2022/09/18 07:26:01;;;;;;;0.40;0.40;;;18.80;1.00;;;;;;5040309;28;20034;-62
2022/09/18 07:28:27;;;;;;;1.00;0.40;;;18.80;1.00;;;;;;5043506;28;20344;-62
2022/09/18 07:30:53;;;;;;;0.90;0.32;;;18.90;1.00;;;;;;5032879;28;20363;-62
2022/09/18 07:33:19;;;;;;;0.85;0.20;;;18.90;1.00;;;;;;5033577;28;20080;-63
2022/09/18 07:35:46;;;;;;;0.82;0.20;;;18.90;1.00;;;;;;5032023;28;20384;-63
2022/09/18 07:38:11;;;;;;;1.30;0.20;;;19.00;1.00;;;;;;5032029;28;20076;-63
2022/09/18 07:40:38;;;;;;;0.45;0.30;;;19.00;1.00;;;;;;5030326;28;20069;-62
2022/09/18 07:43:09;;;;;;;0.63;0.10;;;19.10;1.00;;;;;;5032444;28;20531;-62
2022/09/18 07:45:35;;;;;;;0.40;0.20;;;19.10;1.00;;;;;;5040775;28;20045;-62
2022/09/18 07:48:05;;;;;;;0.65;0.22;;;19.10;1.00;;;;;;5032209;28;20052;-62
2022/09/18 07:50:32;;;;;;;0.22;0.22;;;19.20;1.00;;;;;;5043167;28;20029;-63
2022/09/18 07:53:01;;;;;;;1.23;0.30;;;19.20;1.00;;;;;;5032171;28;20026;-63
2022/09/18 07:55:27;;;;;;;1.52;0.63;;;19.30;1.00;;;;;;5033006;28;20025;-63
2022/09/18 07:57:56;;;;;;;2.35;0.40;;;19.30;1.00;;;;;;5042149;28;20159;-63
2022/09/18 08:00:22;;;;;;;0.30;0.25;;;19.40;1.00;;;;;;5031610;28;20033;-62
2022/09/18 08:02:48;;;;;;;0.30;0.30;;;19.40;1.00;;;;;;5039327;28;20029;-62
2022/09/18 08:05:14;;;;;;;0.40;0.30;;;19.60;1.00;;;;;;5032710;28;20044;-62
2022/09/18 08:07:39;;;;;;;0.60;0.30;;;19.50;1.00;;;;;;5030364;28;20031;-62
2022/09/18 08:10:06;;;;;;;0.20;0.20;;;19.60;1.00;;;;;;5032832;28;20026;-62
2022/09/18 08:12:32;;;;;;;1.27;0.43;;;19.70;1.00;;;;;;5034535;28;20075;-62
2022/09/18 08:14:58;;;;;;;0.35;0.20;;;19.70;1.00;;;;;;5035877;28;20415;-62
2022/09/18 08:17:24;;;;;;;1.00;0.60;;;19.70;1.00;;;;;;5018487;28;20017;-63
2022/09/18 08:19:50;;;;;;;0.82;0.60;;;19.70;1.00;;;;;;5039065;28;20341;-62
2022/09/18 08:22:16;;;;;;;0.55;0.32;;;19.80;1.00;;;;;;5030454;28;20009;-62
2022/09/18 08:24:41;;;;;;;0.30;0.20;;;19.80;1.00;;;;;;5029323;28;20083;-62
2022/09/18 08:27:07;;;;;;;0.55;0.40;;;19.90;1.00;;;;;;5043820;28;20452;-62
2022/09/18 08:29:33;;;;;;;0.90;0.30;;;19.90;1.00;;;;;;5033648;28;20034;-63
2022/09/18 08:31:58;;;;;;;0.52;0.30;;;20.00;1.00;;;;;;5032124;28;20013;-62
2022/09/18 08:34:24;;;;;;;0.50;0.20;;;20.00;1.00;;;;;;5032788;28;20037;-62
2022/09/18 08:36:50;;;;;;;1.58;0.40;;;20.10;1.00;;;;;;5044246;28;20440;-63
2022/09/18 08:39:15;;;;;;;0.35;0.30;;;20.20;1.00;;;;;;5042950;28;20088;-63
2022/09/18 08:41:56;;;;;;;0.40;0.30;;;20.20;1.00;;;;;;5032407;28;20033;-63
2022/09/18 08:44:27;;;;;;;0.22;0.22;;;20.20;1.00;;;;;;5031140;28;20041;-63
2022/09/18 08:47:02;;;;;;;1.58;0.52;;;20.20;1.00;;;;;;5032233;28;20076;-63
2022/09/18 08:49:27;;;;;;;0.43;0.38;;;20.30;1.00;;;;;;5044159;28;20033;-62
2022/09/18 08:52:03;;;;;;;0.85;0.40;;;20.40;1.00;;;;;;5031537;28;20031;-63
2022/09/18 08:54:41;;;;;;;0.50;0.25;;;20.40;1.00;;;;;;5031116;28;20040;-62
2022/09/18 08:57:16;;;;;;;0.10;0.10;;;20.50;1.00;;;;;;5020721;28;20029;-62
2022/09/18 08:59:51;;;;;;;0.38;0.35;;;20.70;1.00;;;;;;5034213;28;20037;-63
2022/09/18 09:02:36;;;;;;;1.27;0.35;;;20.60;1.00;;;;;;5031776;28;20026;-62
2022/09/18 09:05:06;;;;;;;1.00;0.30;;;20.70;1.00;;;;;;5031052;28;20107;-62
2022/09/18 09:07:43;;;;;;;0.25;0.25;;;20.80;1.00;;;;;;5031751;28;20484;-63
2022/09/18 09:10:30;;;;;;;0.73;0.50;;;20.80;1.00;;;;;;5030875;28;20033;-63
2022/09/18 09:13:14;;;;;;;0.40;0.40;;;20.80;1.00;;;;;;5031216;28;20025;-63
2022/09/18 09:15:45;;;;;;;1.60;0.50;;;20.90;1.00;;;;;;5033099;28;20037;-63
2022/09/18 09:18:18;;;;;;;0.45;0.40;;;20.90;1.00;;;;;;5031352;28;20038;-63
2022/09/18 09:20:54;;;;;;;0.80;0.65;;;20.80;1.00;;;;;;5017836;28;20044;-63
2022/09/18 09:23:33;;;;;;;1.17;0.47;;;20.80;1.00;;;;;;5038204;28;20043;-63
2022/09/18 09:26:06;;;;;;;1.75;0.82;;;21.00;1.00;;;;;;5020289;28;20025;-63
2022/09/18 09:29:05;;;;;;;1.40;0.30;;;21.10;1.00;;;;;;5041000;28;20078;-63
2022/09/18 09:31:45;;;;;;;1.75;0.50;;;21.20;1.00;;;;;;5030987;28;20515;-63
2022/09/18 09:34:25;;;;;;;0.40;0.30;;;21.20;1.00;;;;;;5031927;28;20545;-63
2022/09/18 09:36:53;;;;;;;0.50;0.50;;;21.30;1.00;;;;;;5031543;28;20365;-63
2022/09/18 09:39:34;;;;;;;1.17;0.40;;;21.40;1.00;;;;;;5037091;28;20025;-63
2022/09/18 09:42:24;;;;;;;0.98;0.50;;;21.40;1.00;;;;;;5030450;28;20025;-63
2022/09/18 09:44:58;;;;;;;0.70;0.50;;;21.30;1.00;;;;;;5036767;28;20036;-63
2022/09/18 09:47:27;;;;;;;2.47;0.80;;;21.50;1.00;;;;;;5038527;28;20025;-63
2022/09/18 09:50:18;;;;;;;0.90;0.70;;;21.50;1.00;;;;;;5029770;28;20467;-63
2022/09/18 09:52:45;;;;;;;0.52;0.30;;;21.60;1.00;;;;;;5031254;28;20119;-63
2022/09/18 09:55:16;;;;;;;0.95;0.50;;;21.50;1.00;;;;;;5038134;28;20025;-63
2022/09/18 09:57:51;;;;;;;0.50;0.30;;;21.60;1.00;;;;;;5029862;28;20033;-63
2022/09/18 10:00:19;;;;;;;0.70;0.60;;;21.70;1.00;;;;;;5037787;28;20029;-63
2022/09/18 10:03:14;;;;;;;0.32;0.32;;;21.80;1.00;;;;;;5032962;28;20546;-63
2022/09/18 10:06:01;;;;;;;1.98;0.52;;;21.80;1.00;;;;;;5032224;28;20037;-63
2022/09/18 10:08:45;;;;;;;0.77;0.32;;;21.90;1.00;;;;;;5028713;28;20072;-63
2022/09/18 10:11:12;;;;;;;0.40;0.40;;;21.90;1.00;;;;;;5022937;28;20509;-63
2022/09/18 10:13:52;;;;;;;0.63;0.30;;;21.90;1.00;;;;;;5043490;28;20074;-60
2022/09/18 10:16:35;;;;;;;1.00;0.35;;;21.80;1.00;;;;;;5040570;28;20049;-63
2022/09/18 10:19:01;;;;;;;0.60;0.47;;;22.00;1.00;;;;;;5024481;28;20026;-64
2022/09/18 10:21:33;;;;;;;0.95;0.50;;;22.20;1.00;;;;;;5033759;28;20026;-64
2022/09/18 10:24:22;;;;;;;1.40;0.50;;;22.00;1.00;;;;;;5033165;28;20021;-64
2022/09/18 10:26:57;;;;;;;1.52;0.60;;;22.00;1.00;;;;;;5034255;28;20026;-63
2022/09/18 10:29:23;;;;;;;2.47;0.50;;;22.10;1.00;;;;;;5039082;28;20025;-64
2022/09/18 10:31:57;;;;;;;0.80;0.70;;;22.20;1.00;;;;;;5034454;28;20029;-63
2022/09/18 10:34:40;;;;;;;0.55;0.40;;;22.20;1.00;;;;;;5029362;28;20024;-64
2022/09/18 10:37:12;;;;;;;1.02;0.80;;;22.10;1.00;;;;;;5028246;28;20670;-64
2022/09/18 10:39:50;;;;;;;2.65;0.40;;;22.30;1.00;;;;;;5030033;28;20032;-64
2022/09/18 10:42:22;;;;;;;1.55;0.60;;;22.20;1.00;;;;;;5029919;28;20037;-64
2022/09/18 10:44:53;;;;;;;1.13;0.50;;;22.30;1.00;;;;;;5030332;28;20025;-64
2022/09/18 10:47:34;;;;;;;1.65;0.50;;;22.30;1.00;;;;;;5028439;28;20647;-64
2022/09/18 10:50:05;;;;;;;1.27;0.63;;;22.40;1.00;;;;;;5030096;28;20158;-64
2022/09/18 10:52:42;;;;;;;2.22;0.50;;;22.60;1.00;;;;;;5031082;28;20537;-64
2022/09/18 10:55:27;;;;;;;0.60;0.40;;;22.60;1.00;;;;;;5029522;28;20407;-64
2022/09/18 10:57:55;;;;;;;0.93;0.50;;;22.50;1.00;;;;;;5029906;28;20017;-64
2022/09/18 11:00:24;;;;;;;1.58;0.30;;;22.50;1.00;;;;;;5026813;28;20033;-64
2022/09/18 11:03:11;;;;;;;0.43;0.43;;;22.60;1.00;;;;;;5030509;28;20033;-64
2022/09/18 11:05:51;;;;;;;0.95;0.50;;;22.70;1.00;;;;;;5027831;28;20044;-64
2022/09/18 11:08:20;;;;;;;1.38;0.68;;;22.80;1.00;;;;;;5030870;28;20036;-63
2022/09/18 11:10:48;;;;;;;0.40;0.40;;;22.80;1.00;;;;;;5028535;28;20044;-63
2022/09/18 11:13:24;;;;;;;1.63;0.63;;;22.90;1.00;;;;;;5030855;28;20032;-63
2022/09/18 11:15:55;;;;;;;0.40;0.40;;;23.00;1.00;;;;;;5026982;28;20073;-64
2022/09/18 11:18:22;;;;;;;1.38;0.40;;;23.00;1.00;;;;;;5029282;28;20025;-64
2022/09/18 11:20:49;;;;;;;2.85;0.45;;;23.00;1.00;;;;;;5030152;28;20022;-63
2022/09/18 11:23:17;;;;;;;2.05;0.60;;;22.90;1.00;;;;;;5030346;28;20483;-64
2022/09/18 11:25:47;;;;;;;0.40;0.40;;;22.90;1.00;;;;;;5027766;28;20103;-63
2022/09/18 11:28:26;;;;;;;0.85;0.40;;;23.00;1.00;;;;;;5029150;28;20029;-63
2022/09/18 11:30:58;;;;;;;2.55;0.70;;;23.20;1.00;;;;;;5027729;28;20179;-64
2022/09/18 11:33:29;;;;;;;1.73;0.75;;;23.10;1.00;;;;;;5029470;28;20025;-63
2022/09/18 11:36:00;;;;;;;1.60;0.40;;;23.20;1.00;;;;;;5027524;28;20033;-63
2022/09/18 11:38:27;;;;;;;0.60;0.60;;;23.10;1.00;;;;;;5026887;28;20428;-63
2022/09/18 11:40:55;;;;;;;1.98;0.95;;;23.30;1.00;;;;;;5027098;28;20083;-63
2022/09/18 11:43:27;;;;;;;0.60;0.50;;;23.30;1.00;;;;;;5027543;28;20511;-63
2022/09/18 11:46:05;;;;;;;0.63;0.40;;;23.30;1.00;;;;;;5028090;28;20041;-63
2022/09/18 11:49:09;;;;;;;1.13;0.40;;;23.40;1.00;;;;;;5040613;28;20052;-63
2022/09/18 11:51:35;;;;;;;2.78;0.60;;;23.50;1.00;;;;;;5019524;28;20129;-64
2022/09/18 11:54:10;;;;;;;0.45;0.30;;;23.60;1.00;;;;;;5030871;28;20097;-63
2022/09/18 11:56:44;;;;;;;3.33;2.45;;;23.60;1.00;;;;;;5027428;28;20148;-63
2022/09/18 11:59:34;;;;;;;0.85;0.68;;;23.80;1.00;;;;;;5027990;28;20030;-63
2022/09/18 12:02:11;;;;;;;1.23;0.40;;;23.80;1.00;;;;;;5028080;28;20083;-63
2022/09/18 12:04:46;;;;;;;0.50;0.50;;;23.90;1.00;;;;;;5026514;28;20037;-62
2022/09/18 12:07:28;;;;;;;0.52;0.40;;;23.80;1.00;;;;;;5029151;28;20041;-63
2022/09/18 12:10:14;;;;;;;0.60;0.43;;;23.80;1.00;;;;;;5029027;28;20120;-63
2022/09/18 12:12:45;;;;;;;0.40;0.40;;;23.70;1.00;;;;;;5029634;28;20124;-63
2022/09/18 12:15:23;;;;;;;1.48;0.52;;;24.20;1.00;;;;;;5025917;28;20742;-63
2022/09/18 12:18:03;;;;;;;1.73;0.35;;;24.30;1.00;;;;;;5029885;28;20099;-63
2022/09/18 12:20:48;;;;;;;1.48;0.50;;;24.50;1.00;;;;;;5024540;28;20108;-64
2022/09/18 12:23:19;;;;;;;0.73;0.50;;;24.40;1.00;;;;;;5032727;28;20101;-64
2022/09/18 12:26:07;;;;;;;0.43;0.43;;;24.80;1.00;;;;;;5033992;28;20483;-64
2022/09/18 12:28:42;;;;;;;1.13;0.30;;;25.00;1.00;;;;;;5019380;28;20442;-64
2022/09/18 12:31:26;;;;;;;2.25;0.75;;;29.90;1.00;;;;;;5024336;28;20033;-63
2022/09/18 12:34:04;;;;;;;0.82;0.80;;;35.60;99.90;;;;;;5038544;28;20033;-63
2022/09/18 12:37:00;;;;;;;1.85;1.00;;;35.60;99.90;;;;;;5043597;28;20028;-63
2022/09/18 12:39:32;;;;;;;1.02;0.77;;;38.20;99.90;;;;;;5032477;28;20030;-63
2022/09/18 12:42:42;;;;;;;1.15;0.90;;;40.90;99.90;;;;;;5037058;28;20079;-63
2022/09/18 12:45:36;;;;;;;2.05;1.40;;;39.50;99.90;;;;;;5027920;28;20076;-63
2022/09/18 12:48:30;;;;;;;1.33;1.33;;;41.70;99.90;;;;;;5032543;28;20045;-64
2022/09/18 12:51:02;;;;;;;1.55;1.27;;;43.40;99.90;;;;;;5024741;28;20499;-64
2022/09/18 12:53:42;;;;;;;1.60;1.50;;;42.70;99.90;;;;;;5030973;28;20029;-63
2022/09/18 12:56:11;;;;;;;1.40;1.40;;;42.30;99.90;;;;;;5031141;28;20029;-63
2022/09/18 12:59:09;;;;;;;1.77;1.67;;;43.90;99.90;;;;;;5032434;28;20033;-64
2022/09/18 13:01:53;;;;;;;2.05;2.03;;;43.50;99.90;;;;;;5033841;28;20018;-63
2022/09/18 13:04:18;;;;;;;2.00;1.90;;;44.10;99.90;;;;;;5019923;28;20030;-63
2022/09/18 13:07:14;;;;;;;2.00;1.90;;;43.30;99.90;;;;;;5030941;28;20056;-63
2022/09/18 13:09:54;;;;;;;2.70;2.50;;;44.20;99.90;;;;;;5038175;28;20034;-63
2022/09/18 13:12:27;;;;;;;3.08;2.40;;;45.10;99.90;;;;;;5029877;28;20022;-63
2022/09/18 13:14:59;;;;;;;;;;;45.70;99.90;;;;;;5022380;28;20057;-63
2022/09/18 13:17:36;;;;;;;2.30;2.30;;;44.00;99.90;;;;;;5028592;28;19909;-64
2022/09/18 13:20:13;;;;;;;2.25;2.25;;;43.50;99.90;;;;;;5024811;28;20071;-63
2022/09/18 13:22:43;;;;;;;2.20;2.10;;;44.40;99.90;;;;;;5032965;28;20028;-64